Data for 11/12/2014

Time Sea-Level Adjusted Pressure Absolute Pressure Temperature Relative Humidity Dew Point   
(mb) (inHg) (mb) (inHg) (C) (F) (%) (C) (F)
00:05 1030 30.42 860 25.4 -17.8 -0.1 78 -20.8 -5.4
00:10 1030 30.42 859 25.37 -17.8 0 79 -20.6 -5.2
00:15 1030 30.42 859 25.37 -17.7 0.1 79 -20.6 -5
00:20 1030 30.42 860 25.4 -17.6 0.3 77 -20.7 -5.3
00:25 1030 30.42 860 25.4 -17.7 0.2 77 -20.7 -5.3
00:30 1030 30.42 860 25.4 -17.6 0.3 77 -20.8 -5.4
00:35 1030 30.42 860 25.4 -17.6 0.4 76 -20.8 -5.4
00:40 1030 30.42 860 25.4 -17.5 0.5 77 -20.6 -5.2
00:45 1030 30.42 860 25.4 -17.5 0.6 76 -20.7 -5.3
00:50 1030 30.42 860 25.4 -17.6 0.4 76 -20.8 -5.5
00:55 1030 30.42 860 25.4 -17.6 0.3 77 -20.8 -5.4
01:00 1030 30.42 860 25.4 -17.5 0.5 76 -20.8 -5.4
01:05 1030 30.42 860 25.4 -17.6 0.4 76 -20.9 -5.5
01:10 1030 30.42 860 25.4 -17.9 -0.2 76 -21.2 -6.1
01:15 1030 30.42 860 25.4 -18.1 -0.5 76 -21.3 -6.3
01:20 1030 30.42 860 25.4 -18.2 -0.7 78 -21.2 -6.1
01:25 1030 30.42 860 25.4 -18.3 -0.9 78 -21.2 -6.2
01:30 1030 30.42 860 25.4 -18.3 -1 79 -21.2 -6.2
01:35 1030 30.42 860 25.4 -18.2 -0.8 77 -21.3 -6.3
01:40 1030 30.42 860 25.4 -18.5 -1.4 78 -21.5 -6.8
01:45 1030 30.42 860 25.4 -18.7 -1.6 78 -21.7 -7
01:50 1030 30.42 860 25.4 -18.8 -1.8 78 -21.8 -7.2
01:55 1030 30.42 860 25.4 -18.8 -1.8 78 -21.8 -7.2
02:00 1030 30.42 860 25.4 -18.8 -1.8 77 -21.9 -7.4
02:05 1030 30.42 860 25.4 -18.8 -1.8 78 -21.7 -7.1
02:10 1030 30.42 860 25.4 -18.8 -1.8 78 -21.7 -7.1
02:15 1030 30.42 860 25.4 -18.7 -1.7 77 -21.8 -7.2
02:20 1030 30.42 859 25.37 -18.7 -1.6 77 -21.8 -7.2
02:25 1030 30.42 859 25.37 -18.8 -1.8 78 -21.7 -7.1
02:30 1030 30.42 859 25.37 -18.9 -2 79 -21.7 -7
02:35 1030 30.42 859 25.37 -18.9 -2 80 -21.6 -6.9
02:40 1030 30.42 859 25.37 -19 -2.1 79 -21.7 -7.1
02:45 1030 30.42 859 25.37 -19 -2.3 79 -21.8 -7.2
02:50 1030 30.42 860 25.4 -19 -2.2 79 -21.7 -7.1
02:55 1030 30.42 860 25.4 -18.9 -2 79 -21.7 -7
03:00 1030 30.42 860 25.4 -19 -2.1 80 -21.7 -7
03:05 1030 30.42 860 25.4 -19 -2.2 80 -21.6 -6.9
03:10 1030 30.42 860 25.4 -19 -2.2 81 -21.5 -6.7
03:15 1030 30.42 859 25.37 -19 -2.1 80 -21.6 -7
03:20 1030 30.42 859 25.37 -19 -2.1 79 -21.7 -7
03:25 1030 30.42 859 25.37 -19 -2.1 79 -21.7 -7
03:30 1030 30.42 859 25.37 -19 -2.1 78 -21.8 -7.3
03:35 1030 30.42 859 25.37 -19 -2.1 77 -22 -7.7
03:40 1030 30.42 860 25.4 -19 -2.2 77 -22.1 -7.8
03:45 1030 30.42 859 25.37 -19.2 -2.5 77 -22.2 -7.9
03:50 1030 30.42 859 25.37 -19.3 -2.7 78 -22.2 -7.9
03:55 1030 30.42 859 25.37 -19.4 -2.8 79 -22.2 -7.9
04:00 1030 30.42 860 25.4 -19.4 -2.9 79 -22.2 -7.9
04:05 1030 30.42 860 25.4 -19.3 -2.8 78 -22.3 -8.1
04:10 1030 30.42 860 25.4 -19.3 -2.8 78 -22.3 -8.1
04:15 1030 30.42 860 25.4 -19.4 -3 79 -22.3 -8.1
04:20 1030 30.42 860 25.4 -19.6 -3.2 79 -22.4 -8.2
04:25 1030 30.42 859 25.37 -19.6 -3.3 79 -22.4 -8.2
04:30 1030 30.42 859 25.37 -19.6 -3.2 79 -22.4 -8.3
04:35 1030 30.42 859 25.37 -19.5 -3.2 78 -22.4 -8.3
04:40 1030 30.42 859 25.37 -19.5 -3.2 78 -22.5 -8.4
04:45 1030 30.42 859 25.37 -19.6 -3.2 77 -22.6 -8.6
04:50 1030 30.42 859 25.37 -19.7 -3.4 78 -22.6 -8.6
04:55 1030 30.42 859 25.37 -19.8 -3.6 78 -22.7 -8.8
05:00 1030 30.42 860 25.4 -19.8 -3.7 79 -22.6 -8.6
05:05 1030 30.42 860 25.4 -19.8 -3.6 80 -22.4 -8.3
05:10 1030 30.42 860 25.4 -20 -3.9 80 -22.6 -8.6
05:15 1030 30.42 860 25.4 -20.3 -4.6 80 -22.9 -9.3
05:20 1030 30.42 860 25.4 -20.6 -5.1 79 -23.4 -10.1
05:25 1030 30.42 860 25.4 -20.7 -5.2 79 -23.4 -10.1
05:30 1030 30.42 860 25.4 -20.3 -4.6 77 -23.3 -10
05:35 1030 30.42 860 25.4 -20.4 -4.8 75 -23.8 -10.8
05:40 1030 30.42 859 25.37 -20.7 -5.3 75 -24 -11.2
05:45 1030 30.42 859 25.37 -20.5 -4.9 73 -24.2 -11.5
05:50 1030 30.42 860 25.4 -20.8 -5.4 74 -24.3 -11.8
05:55 1030 30.42 859 25.37 -20.4 -4.8 72 -24.3 -11.7
06:00 1030 30.42 859 25.37 -20.9 -5.6 73 -24.5 -12.1
06:05 1030 30.42 859 25.37 -21.1 -5.9 74 -24.5 -12.1
06:10 1030 30.42 859 25.37 -21.1 -6 74 -24.6 -12.3
06:15 1030 30.42 859 25.37 -21.1 -6 73 -24.8 -12.6
06:20 1030 30.42 859 25.37 -21.2 -6.2 73 -24.8 -12.7
06:25 1030 30.42 859 25.37 -21.6 -6.8 74 -25.1 -13.1
06:30 1030 30.42 859 25.37 -21.6 -6.8 73 -25.1 -13.2
06:35 1030 30.42 859 25.37 -21.3 -6.4 72 -25.1 -13.1
06:40 1030 30.42 859 25.37 -21.2 -6.1 73 -24.8 -12.6
06:45 1030 30.42 859 25.37 -21.2 -6.1 73 -24.9 -12.8
06:50 1030 30.42 859 25.37 -21.2 -6.1 72 -24.9 -12.9
06:55 1030 30.42 859 25.37 -21.3 -6.3 73 -25 -12.9
07:00 1030 30.42 859 25.37 -21.5 -6.7 73 -25.1 -13.3
07:05 1030 30.42 859 25.37 -21.7 -7 73 -25.3 -13.5
07:10 1030 30.42 859 25.37 -21.7 -7 73 -25.3 -13.6
07:15 1030 30.42 859 25.37 -21.6 -6.9 73 -25.3 -13.5
07:20 1030 30.42 859 25.37 -21.6 -6.8 73 -25.2 -13.4
07:25 1030 30.42 859 25.37 -21.7 -7 74 -25.2 -13.3
07:30 1030 30.42 859 25.37 -21.6 -6.9 73 -25.3 -13.5
07:35 1030 30.42 859 25.37 -21.4 -6.6 72 -25.3 -13.5
07:40 1030 30.42 859 25.37 -21.3 -6.4 71 -25.2 -13.4
07:45 1030 30.42 859 25.37 -21.4 -6.6 71 -25.4 -13.7
07:50 1030 30.42 859 25.37 -21.4 -6.6 71 -25.4 -13.7
07:55 1030 30.42 859 25.37 -21.6 -6.8 72 -25.4 -13.6
08:00 1030 30.42 859 25.37 -21.7 -7.1 73 -25.4 -13.7
08:05 1030 30.42 859 25.37 -21.8 -7.2 72 -25.6 -14
08:10 1030 30.42 859 25.37 -21.9 -7.4 73 -25.5 -14
08:15 1030 30.42 859 25.37 -22 -7.5 73 -25.5 -14
08:20 1030 30.42 859 25.37 -21.9 -7.5 73 -25.6 -14
08:25 1030 30.42 859 25.37 -21.9 -7.4 73 -25.4 -13.8
08:30 1030 30.42 859 25.37 -21.8 -7.2 73 -25.4 -13.7
08:35 1030 30.42 859 25.37 -21.8 -7.2 73 -25.4 -13.8
08:40 1030 30.42 859 25.37 -21.7 -7 73 -25.4 -13.7
08:45 1030 30.42 859 25.37 -21.5 -6.7 73 -25.1 -13.3
08:50 1030 30.42 859 25.37 -20.9 -5.5 71 -24.9 -12.8
08:55 1030 30.42 859 25.37 -20.6 -5.1 70 -24.8 -12.6
09:00 1030 30.42 859 25.37 -20.2 -4.3 68 -24.7 -12.5
09:05 1030 30.42 859 25.37 -19.7 -3.5 67 -24.5 -12
09:10 1030 30.42 859 25.37 -19.2 -2.6 65 -24.2 -11.6
09:15 1030 30.42 859 25.37 -19.3 -2.8 65 -24.4 -11.9
09:20 1030 30.42 860 25.4 -19.4 -2.9 64 -24.5 -12.2
09:25 1030 30.42 860 25.4 -19.4 -3 63 -24.7 -12.5
09:30 1030 30.42 860 25.4 -19.4 -2.9 60 -25.3 -13.5
09:35 1030 30.42 860 25.4 -19.9 -3.7 64 -25 -13
09:40 1030 30.42 860 25.4 -20.2 -4.4 65 -25.2 -13.4
09:45 1030 30.42 860 25.4 -19.9 -3.7 62 -25.4 -13.7
09:50 1030 30.42 860 25.4 -19.9 -3.9 65 -25 -12.9
09:55 1030 30.42 860 25.4 -19.5 -3.1 63 -24.9 -12.9
10:00 1030 30.42 860 25.4 -19.5 -3 63 -24.7 -12.5
10:05 1030 30.42 860 25.4 -18.8 -1.8 62 -24.4 -12
10:10 1030 30.42 860 25.4 -18.4 -1.1 61 -24.1 -11.4
10:15 1030 30.42 860 25.4 -18 -0.4 58 -24.4 -11.9
10:20 1030 30.42 860 25.4 -18.6 -1.4 62 -24.1 -11.4
10:25 1030 30.42 859 25.37 -18.5 -1.3 62 -24 -11.2
10:30 1030 30.42 859 25.37 -18 -0.5 58 -24.4 -11.9
10:35 1030 30.42 859 25.37 -18.1 -0.7 60 -24.1 -11.4
10:40 1030 30.42 859 25.37 -18.2 -0.8 59 -24.4 -11.9
10:45 1030 30.42 859 25.37 -18.3 -0.9 61 -24 -11.2
10:50 1030 30.42 859 25.37 -17.8 -0.1 60 -23.8 -10.8
10:55 1030 30.42 859 25.37 -16.8 1.8 56 -23.6 -10.4
11:00 1030 30.42 859 25.37 -16.7 1.9 57 -23.5 -10.2
11:05 1030 30.42 859 25.37 -16.8 1.8 54 -24 -11.3
11:10 1030 30.42 859 25.37 -16.6 2.1 56 -23.4 -10.1
11:15 1030 30.42 859 25.37 -16.3 2.7 55 -23.4 -10.2
11:20 1030 30.42 859 25.37 -16.3 2.7 54 -23.6 -10.4
11:25 1030 30.42 859 25.37 -16.3 2.8 52 -24 -11.3
11:30 1030 30.42 859 25.37 -16.4 2.4 51 -24.3 -11.7
11:35 1030 30.42 859 25.37 -16 3.3 50 -24.1 -11.3
11:40 1030 30.42 859 25.37 -15.6 4 53 -23 -9.4
11:45 1030 30.42 859 25.37 -16 3.3 55 -23.1 -9.6
11:50 1030 30.42 859 25.37 -15.3 4.5 51 -23.3 -9.9
11:55 1030 30.42 859 25.37 -15 5 52 -22.9 -9.3
12:00 1030 30.42 859 25.37 -15.4 4.2 53 -23.1 -9.6
12:05 1030 30.42 859 25.37 -15.8 3.6 54 -23.1 -9.6
12:10 1030 30.42 859 25.37 -15.4 4.3 53 -22.9 -9.2
12:15 1030 30.42 859 25.37 -15.1 4.8 51 -23.1 -9.5
12:20 1030 30.42 859 25.37 -15.1 4.8 53 -22.8 -9
12:25 1030 30.42 859 25.37 -15.5 4.2 57 -22.3 -8.1
12:30 1030 30.42 859 25.37 -14.7 5.5 54 -22 -7.6
12:35 1030 30.42 859 25.37 -14.1 6.6 53 -21.8 -7.3
12:40 1030 30.42 859 25.37 -14.1 6.5 55 -21.3 -6.3
12:45 1030 30.42 859 25.37 -14.4 6.1 56 -21.4 -6.5
12:50 1029 30.39 859 25.37 -14.1 6.6 52 -22 -7.6
12:55 1029 30.39 859 25.37 -14.2 6.4 54 -21.6 -6.9
13:00 1029 30.39 859 25.37 -14 6.9 53 -21.5 -6.7
13:05 1029 30.39 859 25.37 -13.9 7.1 53 -21.4 -6.5
13:10 1029 30.39 859 25.37 -13.7 7.4 54 -21.1 -6
13:15 1029 30.39 858 25.34 -13.5 7.8 53 -21.1 -5.9
13:20 1029 30.39 858 25.34 -13.8 7.3 55 -21 -5.9
13:25 1029 30.39 858 25.34 -13.4 7.8 52 -21.3 -6.3
13:30 1029 30.39 858 25.34 -14.5 6 58 -21 -5.8
13:35 1029 30.39 858 25.34 -14.4 6.2 56 -21.3 -6.3
13:40 1029 30.39 858 25.34 -14.3 6.2 55 -21.4 -6.6
13:45 1029 30.39 858 25.34 -13.3 8.1 52 -21.1 -6
13:50 1029 30.39 858 25.34 -14.1 6.6 55 -21.3 -6.4
13:55 1029 30.39 858 25.34 -15.5 4.2 61 -21.4 -6.6
14:00 1029 30.39 858 25.34 -14.8 5.4 55 -22 -7.6
14:05 1029 30.39 858 25.34 -13.4 7.9 51 -21.6 -6.9
14:10 1029 30.39 858 25.34 -12.8 8.9 50 -21.3 -6.3
14:15 1029 30.39 858 25.34 -14.1 6.7 56 -21.2 -6.1
14:20 1029 30.39 858 25.34 -15.1 4.7 59 -21.4 -6.6
14:25 1029 30.39 858 25.34 -14.5 6 55 -21.7 -7.1
14:30 1029 30.39 858 25.34 -13.3 8.1 53 -21.1 -5.9
14:35 1029 30.39 858 25.34 -14 6.7 54 -21.4 -6.4
14:40 1028 30.36 858 25.34 -13.5 7.7 51 -21.6 -6.9
14:45 1028 30.36 858 25.34 -13.3 8.1 52 -21.1 -6
14:50 1028 30.36 858 25.34 -12.7 9.2 50 -21.1 -6
14:55 1028 30.36 858 25.34 -13.1 8.4 52 -21.1 -6
15:00 1028 30.36 858 25.34 -13 8.7 50 -21.4 -6.5
15:05 1028 30.36 858 25.34 -13.4 7.8 52 -21.4 -6.5
15:10 1028 30.36 858 25.34 -13.3 8.1 55 -20.5 -5
15:15 1028 30.36 858 25.34 -14.1 6.7 57 -20.8 -5.4
15:20 1028 30.36 857 25.31 -13.2 8.2 51 -21.3 -6.3
15:25 1028 30.36 857 25.31 -12.5 9.5 49 -21.1 -5.9
15:30 1028 30.36 857 25.31 -13.3 8.1 48 -22 -7.7
15:35 1028 30.36 857 25.31 -13.8 7.1 53 -21.6 -6.9
15:40 1028 30.36 857 25.31 -13.7 7.4 52 -21.5 -6.7
15:45 1028 30.36 857 25.31 -14.5 5.8 55 -21.7 -7
15:50 1028 30.36 857 25.31 -13.4 7.9 52 -21.4 -6.5
15:55 1028 30.36 857 25.31 -13.1 8.4 52 -21 -5.8
16:00 1028 30.36 857 25.31 -13.4 7.9 51 -21.4 -6.5
16:05 1028 30.36 857 25.31 -12.9 8.7 51 -21 -5.8
16:10 1028 30.36 857 25.31 -13.1 8.4 50 -21.4 -6.6
16:15 1028 30.36 857 25.31 -13.1 8.5 50 -21.5 -6.6
16:20 1028 30.36 857 25.31 -13.4 7.8 52 -21.3 -6.3
16:25 1028 30.36 857 25.31 -14.7 5.6 57 -21.5 -6.8
16:30 1028 30.36 857 25.31 -14.7 5.6 55 -21.9 -7.4
16:35 1028 30.36 857 25.31 -15 5 57 -21.7 -7
16:40 1028 30.36 857 25.31 -14.4 6.1 55 -21.5 -6.8
16:45 1028 30.36 857 25.31 -14 6.8 54 -21.5 -6.6
16:50 1028 30.36 857 25.31 -13.6 7.6 53 -21.2 -6.1
16:55 1028 30.36 857 25.31 -13.7 7.4 53 -21.3 -6.3
17:00 1028 30.36 857 25.31 -13.7 7.3 53 -21.4 -6.5
17:05 1028 30.36 857 25.31 -13.9 6.9 55 -21.2 -6.2
17:10 1028 30.36 857 25.31 -14 6.8 56 -21.1 -5.9
17:15 1028 30.36 857 25.31 -14.1 6.7 55 -21.3 -6.3
17:20 1028 30.36 857 25.31 -14.1 6.6 55 -21.2 -6.2
17:25 1028 30.36 857 25.31 -14.5 5.9 56 -21.5 -6.7
17:30 1028 30.36 857 25.31 -14.7 5.5 58 -21.4 -6.5
17:35 1028 30.36 857 25.31 -14.8 5.3 56 -21.7 -7.1
17:40 1028 30.36 857 25.31 -15.4 4.3 59 -21.8 -7.2
17:45 1028 30.36 857 25.31 -16.2 2.8 60 -22.2 -8
17:50 1028 30.36 857 25.31 -16.1 3 60 -22.1 -7.8
17:55 1028 30.36 857 25.31 -16.7 2 60 -22.7 -8.8
18:00 1028 30.36 857 25.31 -16.8 1.8 61 -22.6 -8.6
18:05 1028 30.36 857 25.31 -17.1 1.2 63 -22.5 -8.5
18:10 1028 30.36 857 25.31 -17.2 1.1 63 -22.6 -8.7
18:15 1028 30.36 857 25.31 -17.4 0.7 64 -22.7 -8.8
18:20 1028 30.36 857 25.31 -17.5 0.4 65 -22.6 -8.6
18:25 1028 30.36 857 25.31 -17.6 0.2 66 -22.6 -8.7
18:30 1028 30.36 857 25.31 -17.9 -0.2 67 -22.6 -8.7
18:35 1028 30.36 857 25.31 -17.9 -0.2 67 -22.7 -8.9
18:40 1028 30.36 857 25.31 -18 -0.5 68 -22.6 -8.7
18:45 1028 30.36 857 25.31 -18.1 -0.7 68 -22.7 -8.8
18:50 1028 30.36 857 25.31 -18.2 -0.8 68 -22.7 -8.9
18:55 1028 30.36 857 25.31 -18.3 -0.9 68 -22.7 -8.9
19:00 1028 30.36 857 25.31 -18.3 -0.9 69 -22.7 -8.9
19:05 1028 30.36 857 25.31 -18.3 -1 69 -22.7 -8.8
19:10 1028 30.36 857 25.31 -18.4 -1.2 70 -22.6 -8.8
19:15 1028 30.36 857 25.31 -18.4 -1.1 70 -22.6 -8.7
19:20 1028 30.36 857 25.31 -18.4 -1 70 -22.6 -8.7
19:25 1028 30.36 857 25.31 -18.4 -1.1 70 -22.6 -8.7
19:30 1028 30.36 857 25.31 -18.5 -1.3 70 -22.7 -8.9
19:35 1028 30.36 857 25.31 -18.5 -1.2 70 -22.7 -8.9
19:40 1028 30.36 857 25.31 -18.4 -1.2 70 -22.7 -8.9
19:45 1028 30.36 857 25.31 -18.5 -1.2 70 -22.7 -8.9
19:50 1028 30.36 857 25.31 -18.6 -1.5 71 -22.7 -8.8
19:55 1028 30.36 857 25.31 -18.6 -1.5 71 -22.7 -8.8
20:00 1028 30.36 857 25.31 -18.7 -1.7 71 -22.7 -8.9
20:05 1028 30.36 857 25.31 -18.8 -1.9 72 -22.8 -9
20:10 1028 30.36 857 25.31 -18.9 -2.1 72 -22.9 -9.1
20:15 1028 30.36 857 25.31 -19.4 -2.8 73 -23.1 -9.5
20:20 1028 30.36 857 25.31 -19.4 -2.8 73 -23.1 -9.6
20:25 1028 30.36 857 25.31 -19.5 -3.1 73 -23.1 -9.6
20:30 1028 30.36 857 25.31 -19.4 -2.9 73 -23 -9.5
20:35 1027 30.33 857 25.31 -19.3 -2.7 73 -22.9 -9.3
20:40 1027 30.33 857 25.31 -19.2 -2.6 73 -22.9 -9.1
20:45 1027 30.33 857 25.31 -19.2 -2.5 73 -22.9 -9.2
20:50 1027 30.33 857 25.31 -19.2 -2.5 73 -22.9 -9.2
20:55 1027 30.33 857 25.31 -19.4 -2.9 73 -23.1 -9.6
21:00 1027 30.33 857 25.31 -19.5 -3.2 73 -23.2 -9.7
21:05 1027 30.33 857 25.31 -19.6 -3.2 73 -23.2 -9.7
21:10 1027 30.33 857 25.31 -19.6 -3.3 73 -23.3 -9.9
21:15 1027 30.33 857 25.31 -19.7 -3.5 74 -23.3 -10
21:20 1027 30.33 857 25.31 -19.8 -3.7 73 -23.5 -10.2
21:25 1027 30.33 857 25.31 -19.8 -3.6 73 -23.5 -10.3
21:30 1027 30.33 857 25.31 -19.9 -3.8 73 -23.6 -10.5
21:35 1027 30.33 857 25.31 -20.1 -4.1 73 -23.8 -10.8
21:40 1027 30.33 857 25.31 -20.3 -4.5 73 -23.9 -11
21:45 1027 30.33 857 25.31 -20.2 -4.4 73 -23.9 -11
21:50 1027 30.33 857 25.31 -20.3 -4.6 74 -23.9 -10.9
21:55 1027 30.33 857 25.31 -20.2 -4.4 74 -23.8 -10.9
22:00 1027 30.33 857 25.31 -20 -4 73 -23.7 -10.6
22:05 1027 30.33 857 25.31 -20 -3.9 73 -23.7 -10.6
22:10 1027 30.33 857 25.31 -19.8 -3.6 72 -23.7 -10.6
22:15 1027 30.33 857 25.31 -19.8 -3.7 71 -23.8 -10.8
22:20 1027 30.33 857 25.31 -20 -4.1 72 -23.9 -11
22:25 1027 30.33 857 25.31 -20.2 -4.4 72 -24 -11.2
22:30 1027 30.33 857 25.31 -20.5 -4.9 73 -24.1 -11.4
22:35 1027 30.33 857 25.31 -20.5 -4.9 73 -24.2 -11.6
22:40 1027 30.33 856 25.28 -20.4 -4.6 72 -24.1 -11.5
22:45 1027 30.33 856 25.28 -20.4 -4.7 72 -24.2 -11.5
22:50 1027 30.33 856 25.28 -20.5 -4.8 72 -24.2 -11.6
22:55 1027 30.33 856 25.28 -20.4 -4.8 72 -24.2 -11.6
23:00 1027 30.33 856 25.28 -20.5 -4.8 72 -24.3 -11.7
23:05 1027 30.33 856 25.28 -20.4 -4.6 72 -24.2 -11.5
23:10 1027 30.33 856 25.28 -20.3 -4.6 72 -24.1 -11.4
23:15 1027 30.33 856 25.28 -20.3 -4.6 72 -24.1 -11.4
23:20 1027 30.33 856 25.28 -20.1 -4.3 71 -24.1 -11.5
23:25 1027 30.33 856 25.28 -20.3 -4.5 71 -24.3 -11.8
23:30 1027 30.33 856 25.28 -20.4 -4.8 72 -24.3 -11.8
23:35 1027 30.33 856 25.28 -20.4 -4.8 71 -24.3 -11.8
23:40 1027 30.33 856 25.28 -20.4 -4.6 71 -24.4 -11.9
23:45 1027 30.33 856 25.28 -20.3 -4.6 71 -24.4 -11.9
23:50 1027 30.33 856 25.28 -20.3 -4.6 71 -24.3 -11.8
23:55 1027 30.33 856 25.28 -20.3 -4.6 71 -24.4 -11.9
24:00 1027 30.33 856 25.28 -20.4 -4.7 70 -24.5 -12.1